sensor_id;sensor_type;location;lat;lon;timestamp;P1;durP1;ratioP1;P2;durP2;ratioP2
7527;SDS011;3805;49.006;8.514;2023-11-21T00:01:02;2.60;;;2.03;;
7527;SDS011;3805;49.006;8.514;2023-11-21T00:03:31;2.20;;;1.70;;
7527;SDS011;3805;49.006;8.514;2023-11-21T00:05:59;5.60;;;1.93;;
7527;SDS011;3805;49.006;8.514;2023-11-21T00:08:29;3.83;;;1.97;;
7527;SDS011;3805;49.006;8.514;2023-11-21T00:10:58;3.00;;;1.70;;
7527;SDS011;3805;49.006;8.514;2023-11-21T00:13:27;2.60;;;1.90;;
7527;SDS011;3805;49.006;8.514;2023-11-21T00:15:55;2.87;;;2.07;;
7527;SDS011;3805;49.006;8.514;2023-11-21T00:18:24;2.10;;;2.00;;
7527;SDS011;3805;49.006;8.514;2023-11-21T00:20:52;3.03;;;2.77;;
7527;SDS011;3805;49.006;8.514;2023-11-21T00:23:20;6.33;;;3.37;;
7527;SDS011;3805;49.006;8.514;2023-11-21T00:25:48;2.40;;;1.83;;
7527;SDS011;3805;49.006;8.514;2023-11-21T00:28:18;3.50;;;1.90;;
7527;SDS011;3805;49.006;8.514;2023-11-21T00:30:46;5.80;;;1.87;;
7527;SDS011;3805;49.006;8.514;2023-11-21T00:33:15;6.27;;;2.07;;
7527;SDS011;3805;49.006;8.514;2023-11-21T00:35:43;3.73;;;2.00;;
7527;SDS011;3805;49.006;8.514;2023-11-21T00:38:11;3.37;;;2.03;;
7527;SDS011;3805;49.006;8.514;2023-11-21T00:40:40;4.10;;;3.10;;
7527;SDS011;3805;49.006;8.514;2023-11-21T00:43:08;3.10;;;2.23;;
7527;SDS011;3805;49.006;8.514;2023-11-21T00:45:41;5.77;;;2.30;;
7527;SDS011;3805;49.006;8.514;2023-11-21T00:48:10;4.37;;;2.10;;
7527;SDS011;3805;49.006;8.514;2023-11-21T00:50:40;10.47;;;2.40;;
7527;SDS011;3805;49.006;8.514;2023-11-21T00:53:08;4.87;;;2.00;;
7527;SDS011;3805;49.006;8.514;2023-11-21T00:55:37;2.87;;;1.87;;
7527;SDS011;3805;49.006;8.514;2023-11-21T00:58:07;3.50;;;2.67;;
7527;SDS011;3805;49.006;8.514;2023-11-21T01:00:35;2.97;;;2.27;;
7527;SDS011;3805;49.006;8.514;2023-11-21T01:03:07;2.17;;;1.97;;
7527;SDS011;3805;49.006;8.514;2023-11-21T01:05:36;3.10;;;2.00;;
7527;SDS011;3805;49.006;8.514;2023-11-21T01:08:04;4.80;;;2.17;;
7527;SDS011;3805;49.006;8.514;2023-11-21T01:10:32;2.73;;;1.70;;
7527;SDS011;3805;49.006;8.514;2023-11-21T01:13:02;3.83;;;1.93;;
7527;SDS011;3805;49.006;8.514;2023-11-21T01:15:32;2.30;;;1.87;;
7527;SDS011;3805;49.006;8.514;2023-11-21T01:18:00;4.73;;;1.73;;
7527;SDS011;3805;49.006;8.514;2023-11-21T01:20:30;2.03;;;1.83;;
7527;SDS011;3805;49.006;8.514;2023-11-21T01:22:58;3.10;;;1.90;;
7527;SDS011;3805;49.006;8.514;2023-11-21T01:25:26;3.30;;;1.70;;
7527;SDS011;3805;49.006;8.514;2023-11-21T01:27:55;3.43;;;2.40;;
7527;SDS011;3805;49.006;8.514;2023-11-21T01:30:23;2.87;;;1.77;;
7527;SDS011;3805;49.006;8.514;2023-11-21T01:32:52;2.30;;;1.67;;
7527;SDS011;3805;49.006;8.514;2023-11-21T01:35:20;6.50;;;2.10;;
7527;SDS011;3805;49.006;8.514;2023-11-21T01:37:50;2.33;;;2.00;;
7527;SDS011;3805;49.006;8.514;2023-11-21T01:40:18;7.37;;;2.23;;
7527;SDS011;3805;49.006;8.514;2023-11-21T01:42:47;2.80;;;2.23;;
7527;SDS011;3805;49.006;8.514;2023-11-21T01:45:16;2.73;;;2.20;;
7527;SDS011;3805;49.006;8.514;2023-11-21T01:47:44;3.07;;;1.70;;
7527;SDS011;3805;49.006;8.514;2023-11-21T01:50:13;2.37;;;1.80;;
7527;SDS011;3805;49.006;8.514;2023-11-21T01:52:44;4.30;;;2.00;;
7527;SDS011;3805;49.006;8.514;2023-11-21T01:55:15;5.40;;;2.20;;
7527;SDS011;3805;49.006;8.514;2023-11-21T01:57:54;2.43;;;1.93;;
7527;SDS011;3805;49.006;8.514;2023-11-21T02:00:23;3.43;;;2.00;;
7527;SDS011;3805;49.006;8.514;2023-11-21T02:02:52;3.83;;;2.37;;
7527;SDS011;3805;49.006;8.514;2023-11-21T02:05:21;4.80;;;2.00;;
7527;SDS011;3805;49.006;8.514;2023-11-21T02:07:49;5.53;;;1.97;;
7527;SDS011;3805;49.006;8.514;2023-11-21T02:10:20;4.63;;;4.23;;
7527;SDS011;3805;49.006;8.514;2023-11-21T02:12:51;2.20;;;2.00;;
7527;SDS011;3805;49.006;8.514;2023-11-21T02:15:18;2.10;;;1.90;;
7527;SDS011;3805;49.006;8.514;2023-11-21T02:17:48;5.37;;;2.03;;
7527;SDS011;3805;49.006;8.514;2023-11-21T02:20:20;3.13;;;2.43;;
7527;SDS011;3805;49.006;8.514;2023-11-21T02:22:51;3.90;;;2.27;;
7527;SDS011;3805;49.006;8.514;2023-11-21T02:25:23;6.43;;;2.00;;
7527;SDS011;3805;49.006;8.514;2023-11-21T02:27:51;3.30;;;2.07;;
7527;SDS011;3805;49.006;8.514;2023-11-21T02:30:21;3.07;;;2.03;;
7527;SDS011;3805;49.006;8.514;2023-11-21T02:32:49;1.90;;;1.63;;
7527;SDS011;3805;49.006;8.514;2023-11-21T02:35:19;3.80;;;2.23;;
7527;SDS011;3805;49.006;8.514;2023-11-21T02:37:48;2.13;;;2.03;;
7527;SDS011;3805;49.006;8.514;2023-11-21T02:40:18;2.43;;;1.90;;
7527;SDS011;3805;49.006;8.514;2023-11-21T02:42:47;4.70;;;2.10;;
7527;SDS011;3805;49.006;8.514;2023-11-21T02:45:18;2.00;;;1.80;;
7527;SDS011;3805;49.006;8.514;2023-11-21T02:47:48;5.67;;;2.00;;
7527;SDS011;3805;49.006;8.514;2023-11-21T02:50:16;5.33;;;2.23;;
7527;SDS011;3805;49.006;8.514;2023-11-21T02:52:47;5.93;;;2.23;;
7527;SDS011;3805;49.006;8.514;2023-11-21T02:55:17;2.10;;;1.70;;
7527;SDS011;3805;49.006;8.514;2023-11-21T02:57:45;3.93;;;1.97;;
7527;SDS011;3805;49.006;8.514;2023-11-21T03:00:14;3.23;;;2.13;;
7527;SDS011;3805;49.006;8.514;2023-11-21T03:02:43;6.50;;;2.30;;
7527;SDS011;3805;49.006;8.514;2023-11-21T03:05:11;3.83;;;2.07;;
7527;SDS011;3805;49.006;8.514;2023-11-21T03:07:40;4.70;;;2.20;;
7527;SDS011;3805;49.006;8.514;2023-11-21T03:10:08;3.13;;;2.10;;
7527;SDS011;3805;49.006;8.514;2023-11-21T03:12:39;5.93;;;2.40;;
7527;SDS011;3805;49.006;8.514;2023-11-21T03:15:08;2.20;;;2.10;;
7527;SDS011;3805;49.006;8.514;2023-11-21T03:17:37;4.83;;;1.97;;
7527;SDS011;3805;49.006;8.514;2023-11-21T03:20:05;4.37;;;3.40;;
7527;SDS011;3805;49.006;8.514;2023-11-21T03:22:38;4.80;;;2.10;;
7527;SDS011;3805;49.006;8.514;2023-11-21T03:25:06;4.80;;;2.40;;
7527;SDS011;3805;49.006;8.514;2023-11-21T03:27:39;3.97;;;2.50;;
7527;SDS011;3805;49.006;8.514;2023-11-21T03:30:08;6.00;;;2.53;;
7527;SDS011;3805;49.006;8.514;2023-11-21T03:32:37;9.13;;;2.70;;
7527;SDS011;3805;49.006;8.514;2023-11-21T03:35:06;2.57;;;2.13;;
7527;SDS011;3805;49.006;8.514;2023-11-21T03:37:35;2.63;;;2.20;;
7527;SDS011;3805;49.006;8.514;2023-11-21T03:40:05;2.83;;;2.10;;
7527;SDS011;3805;49.006;8.514;2023-11-21T03:42:35;4.50;;;1.97;;
7527;SDS011;3805;49.006;8.514;2023-11-21T03:45:05;4.53;;;2.30;;
7527;SDS011;3805;49.006;8.514;2023-11-21T03:47:35;4.60;;;2.07;;
7527;SDS011;3805;49.006;8.514;2023-11-21T03:50:04;3.97;;;2.17;;
7527;SDS011;3805;49.006;8.514;2023-11-21T03:52:33;2.20;;;1.60;;
7527;SDS011;3805;49.006;8.514;2023-11-21T03:55:01;4.53;;;2.20;;
7527;SDS011;3805;49.006;8.514;2023-11-21T03:57:30;5.40;;;2.40;;
7527;SDS011;3805;49.006;8.514;2023-11-21T03:59:59;2.40;;;2.20;;
7527;SDS011;3805;49.006;8.514;2023-11-21T04:02:28;7.40;;;2.13;;
7527;SDS011;3805;49.006;8.514;2023-11-21T04:04:58;4.20;;;2.17;;
7527;SDS011;3805;49.006;8.514;2023-11-21T04:07:26;1.70;;;1.60;;
7527;SDS011;3805;49.006;8.514;2023-11-21T04:09:55;6.63;;;1.77;;
7527;SDS011;3805;49.006;8.514;2023-11-21T04:12:23;1.83;;;1.73;;
7527;SDS011;3805;49.006;8.514;2023-11-21T04:14:52;2.77;;;2.47;;
7527;SDS011;3805;49.006;8.514;2023-11-21T04:17:22;1.80;;;1.70;;
7527;SDS011;3805;49.006;8.514;2023-11-21T04:19:51;3.20;;;2.00;;
7527;SDS011;3805;49.006;8.514;2023-11-21T04:22:19;5.07;;;1.97;;
7527;SDS011;3805;49.006;8.514;2023-11-21T04:24:48;2.03;;;1.83;;
7527;SDS011;3805;49.006;8.514;2023-11-21T04:27:17;3.00;;;2.00;;
7527;SDS011;3805;49.006;8.514;2023-11-21T04:29:45;3.97;;;1.83;;
7527;SDS011;3805;49.006;8.514;2023-11-21T04:32:13;6.10;;;2.17;;
7527;SDS011;3805;49.006;8.514;2023-11-21T04:34:41;2.23;;;1.60;;
7527;SDS011;3805;49.006;8.514;2023-11-21T04:37:11;2.37;;;1.70;;
7527;SDS011;3805;49.006;8.514;2023-11-21T04:39:40;3.93;;;1.87;;
7527;SDS011;3805;49.006;8.514;2023-11-21T04:42:08;2.70;;;2.50;;
7527;SDS011;3805;49.006;8.514;2023-11-21T04:44:36;2.43;;;2.23;;
7527;SDS011;3805;49.006;8.514;2023-11-21T04:47:07;2.87;;;2.57;;
7527;SDS011;3805;49.006;8.514;2023-11-21T04:49:36;3.83;;;2.30;;
7527;SDS011;3805;49.006;8.514;2023-11-21T04:52:04;2.83;;;1.90;;
7527;SDS011;3805;49.006;8.514;2023-11-21T04:54:35;3.50;;;2.30;;
7527;SDS011;3805;49.006;8.514;2023-11-21T04:57:03;4.87;;;2.20;;
7527;SDS011;3805;49.006;8.514;2023-11-21T04:59:34;3.23;;;2.00;;
7527;SDS011;3805;49.006;8.514;2023-11-21T05:02:02;3.53;;;2.30;;
7527;SDS011;3805;49.006;8.514;2023-11-21T05:04:32;3.27;;;2.23;;
7527;SDS011;3805;49.006;8.514;2023-11-21T05:07:00;2.23;;;2.03;;
7527;SDS011;3805;49.006;8.514;2023-11-21T05:09:28;4.63;;;2.30;;
7527;SDS011;3805;49.006;8.514;2023-11-21T05:12:00;2.73;;;2.53;;
7527;SDS011;3805;49.006;8.514;2023-11-21T05:14:30;3.93;;;2.20;;
7527;SDS011;3805;49.006;8.514;2023-11-21T05:16:58;4.57;;;2.23;;
7527;SDS011;3805;49.006;8.514;2023-11-21T05:19:28;6.50;;;2.63;;
7527;SDS011;3805;49.006;8.514;2023-11-21T05:21:56;3.97;;;2.60;;
7527;SDS011;3805;49.006;8.514;2023-11-21T05:24:25;5.73;;;2.30;;
7527;SDS011;3805;49.006;8.514;2023-11-21T05:26:54;2.67;;;2.47;;
7527;SDS011;3805;49.006;8.514;2023-11-21T05:29:24;3.67;;;2.63;;
7527;SDS011;3805;49.006;8.514;2023-11-21T05:31:54;3.50;;;3.20;;
7527;SDS011;3805;49.006;8.514;2023-11-21T05:34:22;7.10;;;3.20;;
7527;SDS011;3805;49.006;8.514;2023-11-21T05:36:51;4.40;;;2.67;;
7527;SDS011;3805;49.006;8.514;2023-11-21T05:39:20;3.17;;;2.87;;
7527;SDS011;3805;49.006;8.514;2023-11-21T05:41:48;9.37;;;2.93;;
7527;SDS011;3805;49.006;8.514;2023-11-21T05:44:17;4.10;;;2.57;;
7527;SDS011;3805;49.006;8.514;2023-11-21T05:46:46;4.50;;;2.53;;
7527;SDS011;3805;49.006;8.514;2023-11-21T05:49:15;6.43;;;3.03;;
7527;SDS011;3805;49.006;8.514;2023-11-21T05:51:43;3.10;;;2.80;;
7527;SDS011;3805;49.006;8.514;2023-11-21T05:54:12;3.83;;;3.40;;
7527;SDS011;3805;49.006;8.514;2023-11-21T05:56:40;3.23;;;2.83;;
7527;SDS011;3805;49.006;8.514;2023-11-21T05:59:08;3.00;;;2.47;;
7527;SDS011;3805;49.006;8.514;2023-11-21T06:01:37;3.93;;;3.63;;
7527;SDS011;3805;49.006;8.514;2023-11-21T06:04:07;3.37;;;2.90;;
7527;SDS011;3805;49.006;8.514;2023-11-21T06:06:36;3.90;;;3.50;;
7527;SDS011;3805;49.006;8.514;2023-11-21T06:09:04;3.73;;;3.30;;
7527;SDS011;3805;49.006;8.514;2023-11-21T06:11:35;7.67;;;3.43;;
7527;SDS011;3805;49.006;8.514;2023-11-21T06:14:04;3.97;;;3.67;;
7527;SDS011;3805;49.006;8.514;2023-11-21T06:16:34;4.13;;;3.83;;
7527;SDS011;3805;49.006;8.514;2023-11-21T06:19:03;3.50;;;3.30;;
7527;SDS011;3805;49.006;8.514;2023-11-21T06:21:33;4.57;;;4.13;;
7527;SDS011;3805;49.006;8.514;2023-11-21T06:24:02;4.10;;;3.70;;
7527;SDS011;3805;49.006;8.514;2023-11-21T06:26:30;4.50;;;3.70;;
7527;SDS011;3805;49.006;8.514;2023-11-21T06:29:00;4.10;;;3.80;;
7527;SDS011;3805;49.006;8.514;2023-11-21T06:31:29;5.30;;;4.70;;
7527;SDS011;3805;49.006;8.514;2023-11-21T06:33:59;3.83;;;3.53;;
7527;SDS011;3805;49.006;8.514;2023-11-21T06:36:28;4.70;;;3.50;;
7527;SDS011;3805;49.006;8.514;2023-11-21T06:38:57;3.40;;;3.10;;
7527;SDS011;3805;49.006;8.514;2023-11-21T06:41:26;4.93;;;3.93;;
7527;SDS011;3805;49.006;8.514;2023-11-21T06:43:54;3.70;;;3.40;;
7527;SDS011;3805;49.006;8.514;2023-11-21T06:46:22;3.87;;;3.53;;
7527;SDS011;3805;49.006;8.514;2023-11-21T06:48:51;6.07;;;3.30;;
7527;SDS011;3805;49.006;8.514;2023-11-21T06:51:20;3.77;;;3.10;;
7527;SDS011;3805;49.006;8.514;2023-11-21T06:53:48;3.83;;;3.53;;
7527;SDS011;3805;49.006;8.514;2023-11-21T06:56:18;3.50;;;3.27;;
7527;SDS011;3805;49.006;8.514;2023-11-21T06:58:46;3.83;;;3.53;;
7527;SDS011;3805;49.006;8.514;2023-11-21T07:01:16;4.43;;;4.13;;
7527;SDS011;3805;49.006;8.514;2023-11-21T07:03:44;3.17;;;2.97;;
7527;SDS011;3805;49.006;8.514;2023-11-21T07:06:12;8.40;;;3.77;;
7527;SDS011;3805;49.006;8.514;2023-11-21T07:08:43;4.00;;;3.13;;
7527;SDS011;3805;49.006;8.514;2023-11-21T07:11:12;6.27;;;3.80;;
7527;SDS011;3805;49.006;8.514;2023-11-21T07:13:41;5.20;;;4.10;;
7527;SDS011;3805;49.006;8.514;2023-11-21T07:16:10;4.30;;;3.70;;
7527;SDS011;3805;49.006;8.514;2023-11-21T07:18:38;4.77;;;3.30;;
7527;SDS011;3805;49.006;8.514;2023-11-21T07:21:07;4.33;;;3.60;;
7527;SDS011;3805;49.006;8.514;2023-11-21T07:23:36;4.40;;;4.10;;
7527;SDS011;3805;49.006;8.514;2023-11-21T07:26:04;5.00;;;4.57;;
7527;SDS011;3805;49.006;8.514;2023-11-21T07:28:36;4.53;;;4.20;;
7527;SDS011;3805;49.006;8.514;2023-11-21T07:31:06;5.73;;;5.07;;
7527;SDS011;3805;49.006;8.514;2023-11-21T07:33:34;8.37;;;4.30;;
7527;SDS011;3805;49.006;8.514;2023-11-21T07:36:02;5.73;;;5.20;;
7527;SDS011;3805;49.006;8.514;2023-11-21T07:38:31;5.10;;;4.60;;
7527;SDS011;3805;49.006;8.514;2023-11-21T07:41:00;5.83;;;4.47;;
7527;SDS011;3805;49.006;8.514;2023-11-21T07:43:29;6.10;;;5.60;;
7527;SDS011;3805;49.006;8.514;2023-11-21T07:46:01;7.70;;;5.80;;
7527;SDS011;3805;49.006;8.514;2023-11-21T07:48:31;6.80;;;6.20;;
7527;SDS011;3805;49.006;8.514;2023-11-21T07:51:00;9.03;;;6.53;;
7527;SDS011;3805;49.006;8.514;2023-11-21T07:53:30;8.30;;;5.57;;
7527;SDS011;3805;49.006;8.514;2023-11-21T07:55:58;7.03;;;6.37;;
7527;SDS011;3805;49.006;8.514;2023-11-21T07:58:30;9.37;;;6.80;;
7527;SDS011;3805;49.006;8.514;2023-11-21T08:01:00;7.47;;;5.83;;
7527;SDS011;3805;49.006;8.514;2023-11-21T08:03:28;6.83;;;6.23;;
7527;SDS011;3805;49.006;8.514;2023-11-21T08:05:58;6.70;;;6.07;;
7527;SDS011;3805;49.006;8.514;2023-11-21T08:08:27;6.20;;;5.60;;
7527;SDS011;3805;49.006;8.514;2023-11-21T08:10:55;7.43;;;5.60;;
7527;SDS011;3805;49.006;8.514;2023-11-21T08:13:24;11.00;;;6.63;;
7527;SDS011;3805;49.006;8.514;2023-11-21T08:15:54;6.07;;;5.57;;
7527;SDS011;3805;49.006;8.514;2023-11-21T08:18:23;9.70;;;5.80;;
7527;SDS011;3805;49.006;8.514;2023-11-21T08:20:51;6.87;;;5.70;;
7527;SDS011;3805;49.006;8.514;2023-11-21T08:23:23;6.50;;;5.90;;
7527;SDS011;3805;49.006;8.514;2023-11-21T08:25:52;5.50;;;5.10;;
7527;SDS011;3805;49.006;8.514;2023-11-21T08:28:21;7.97;;;5.50;;
7527;SDS011;3805;49.006;8.514;2023-11-21T08:30:53;7.10;;;6.40;;
7527;SDS011;3805;49.006;8.514;2023-11-21T08:33:22;5.83;;;5.33;;
7527;SDS011;3805;49.006;8.514;2023-11-21T08:35:50;8.70;;;6.03;;
7527;SDS011;3805;49.006;8.514;2023-11-21T08:38:18;6.00;;;5.57;;
7527;SDS011;3805;49.006;8.514;2023-11-21T08:40:48;12.23;;;6.97;;
7527;SDS011;3805;49.006;8.514;2023-11-21T08:43:16;6.50;;;5.90;;
7527;SDS011;3805;49.006;8.514;2023-11-21T08:45:46;8.20;;;6.37;;
7527;SDS011;3805;49.006;8.514;2023-11-21T08:48:15;8.30;;;7.47;;
7527;SDS011;3805;49.006;8.514;2023-11-21T08:50:43;8.10;;;7.10;;
7527;SDS011;3805;49.006;8.514;2023-11-21T08:53:11;12.00;;;7.60;;
7527;SDS011;3805;49.006;8.514;2023-11-21T08:55:40;8.97;;;8.17;;
7527;SDS011;3805;49.006;8.514;2023-11-21T08:58:09;7.03;;;6.43;;
7527;SDS011;3805;49.006;8.514;2023-11-21T09:00:39;11.43;;;7.40;;
7527;SDS011;3805;49.006;8.514;2023-11-21T09:03:07;11.23;;;6.63;;
7527;SDS011;3805;49.006;8.514;2023-11-21T09:05:37;9.63;;;7.47;;
7527;SDS011;3805;49.006;8.514;2023-11-21T09:08:06;8.80;;;7.90;;
7527;SDS011;3805;49.006;8.514;2023-11-21T09:10:34;8.50;;;7.70;;
7527;SDS011;3805;49.006;8.514;2023-11-21T09:13:03;12.73;;;8.43;;
7527;SDS011;3805;49.006;8.514;2023-11-21T09:15:33;11.23;;;8.70;;
7527;SDS011;3805;49.006;8.514;2023-11-21T09:18:02;15.23;;;9.77;;
7527;SDS011;3805;49.006;8.514;2023-11-21T09:20:33;10.77;;;9.63;;
7527;SDS011;3805;49.006;8.514;2023-11-21T09:23:02;11.60;;;9.20;;
7527;SDS011;3805;49.006;8.514;2023-11-21T09:25:30;13.37;;;9.47;;
7527;SDS011;3805;49.006;8.514;2023-11-21T09:27:58;13.67;;;10.03;;
7527;SDS011;3805;49.006;8.514;2023-11-21T09:30:27;11.37;;;9.53;;
7527;SDS011;3805;49.006;8.514;2023-11-21T09:32:56;12.10;;;10.10;;
7527;SDS011;3805;49.006;8.514;2023-11-21T09:35:25;16.17;;;11.57;;
7527;SDS011;3805;49.006;8.514;2023-11-21T09:37:54;17.40;;;12.30;;
7527;SDS011;3805;49.006;8.514;2023-11-21T09:40:23;23.83;;;13.17;;
7527;SDS011;3805;49.006;8.514;2023-11-21T09:42:53;19.37;;;12.80;;
7527;SDS011;3805;49.006;8.514;2023-11-21T09:45:24;16.80;;;12.70;;
7527;SDS011;3805;49.006;8.514;2023-11-21T09:47:54;20.83;;;13.83;;
7527;SDS011;3805;49.006;8.514;2023-11-21T09:50:24;22.80;;;13.03;;
7527;SDS011;3805;49.006;8.514;2023-11-21T09:52:55;19.70;;;13.83;;
7527;SDS011;3805;49.006;8.514;2023-11-21T09:55:27;18.33;;;12.97;;
7527;SDS011;3805;49.006;8.514;2023-11-21T09:57:57;20.93;;;13.20;;
7527;SDS011;3805;49.006;8.514;2023-11-21T10:00:27;17.27;;;11.70;;
7527;SDS011;3805;49.006;8.514;2023-11-21T10:02:58;18.40;;;12.67;;
7527;SDS011;3805;49.006;8.514;2023-11-21T10:05:28;20.47;;;13.23;;
7527;SDS011;3805;49.006;8.514;2023-11-21T10:08:01;19.37;;;13.10;;
7527;SDS011;3805;49.006;8.514;2023-11-21T10:10:29;23.43;;;13.17;;
7527;SDS011;3805;49.006;8.514;2023-11-21T10:13:01;19.43;;;13.30;;
7527;SDS011;3805;49.006;8.514;2023-11-21T10:15:30;19.67;;;12.90;;
7527;SDS011;3805;49.006;8.514;2023-11-21T10:18:04;17.70;;;12.30;;
7527;SDS011;3805;49.006;8.514;2023-11-21T10:20:37;20.30;;;14.80;;
7527;SDS011;3805;49.006;8.514;2023-11-21T10:23:06;17.37;;;13.13;;
7527;SDS011;3805;49.006;8.514;2023-11-21T10:25:38;18.90;;;12.50;;
7527;SDS011;3805;49.006;8.514;2023-11-21T10:28:06;20.10;;;13.20;;
7527;SDS011;3805;49.006;8.514;2023-11-21T10:30:35;15.60;;;12.10;;
7527;SDS011;3805;49.006;8.514;2023-11-21T10:33:04;17.10;;;12.87;;
7527;SDS011;3805;49.006;8.514;2023-11-21T10:35:45;20.90;;;14.73;;
7527;SDS011;3805;49.006;8.514;2023-11-21T10:38:18;19.70;;;13.20;;
7527;SDS011;3805;49.006;8.514;2023-11-21T10:40:48;17.17;;;12.50;;
7527;SDS011;3805;49.006;8.514;2023-11-21T10:43:16;15.97;;;11.27;;
7527;SDS011;3805;49.006;8.514;2023-11-21T10:45:45;18.27;;;13.13;;
7527;SDS011;3805;49.006;8.514;2023-11-21T10:48:14;21.93;;;12.40;;
7527;SDS011;3805;49.006;8.514;2023-11-21T10:50:45;17.13;;;12.70;;
7527;SDS011;3805;49.006;8.514;2023-11-21T10:53:14;19.00;;;13.17;;
7527;SDS011;3805;49.006;8.514;2023-11-21T10:55:45;17.77;;;12.43;;
7527;SDS011;3805;49.006;8.514;2023-11-21T10:58:13;14.80;;;12.23;;
7527;SDS011;3805;49.006;8.514;2023-11-21T11:00:42;14.80;;;11.70;;
7527;SDS011;3805;49.006;8.514;2023-11-21T11:03:12;14.90;;;12.00;;
7527;SDS011;3805;49.006;8.514;2023-11-21T11:05:45;12.20;;;10.07;;
7527;SDS011;3805;49.006;8.514;2023-11-21T11:08:20;13.80;;;10.97;;
7527;SDS011;3805;49.006;8.514;2023-11-21T11:10:54;14.13;;;10.47;;
7527;SDS011;3805;49.006;8.514;2023-11-21T11:13:23;12.00;;;10.00;;
7527;SDS011;3805;49.006;8.514;2023-11-21T11:15:54;11.10;;;9.80;;
7527;SDS011;3805;49.006;8.514;2023-11-21T11:18:27;11.20;;;9.27;;
7527;SDS011;3805;49.006;8.514;2023-11-21T11:21:00;12.43;;;10.17;;
7527;SDS011;3805;49.006;8.514;2023-11-21T11:23:37;11.83;;;8.67;;
7527;SDS011;3805;49.006;8.514;2023-11-21T11:26:16;11.10;;;9.20;;
7527;SDS011;3805;49.006;8.514;2023-11-21T11:28:55;11.23;;;10.00;;
7527;SDS011;3805;49.006;8.514;2023-11-21T11:31:30;11.27;;;8.40;;
7527;SDS011;3805;49.006;8.514;2023-11-21T11:34:04;9.90;;;8.43;;
7527;SDS011;3805;49.006;8.514;2023-11-21T11:36:43;9.60;;;8.60;;
7527;SDS011;3805;49.006;8.514;2023-11-21T11:39:27;11.17;;;8.23;;
7527;SDS011;3805;49.006;8.514;2023-11-21T11:41:56;9.70;;;8.80;;
7527;SDS011;3805;49.006;8.514;2023-11-21T11:44:46;10.33;;;8.40;;
7527;SDS011;3805;49.006;8.514;2023-11-21T11:47:23;10.37;;;8.10;;
7527;SDS011;3805;49.006;8.514;2023-11-21T11:49:56;9.67;;;8.67;;
7527;SDS011;3805;49.006;8.514;2023-11-21T11:52:37;9.83;;;8.17;;
7527;SDS011;3805;49.006;8.514;2023-11-21T11:55:08;9.70;;;8.27;;
7527;SDS011;3805;49.006;8.514;2023-11-21T11:57:38;9.53;;;7.30;;
7527;SDS011;3805;49.006;8.514;2023-11-21T12:00:07;7.73;;;6.90;;
7527;SDS011;3805;49.006;8.514;2023-11-21T12:02:39;9.00;;;8.07;;
7527;SDS011;3805;49.006;8.514;2023-11-21T12:05:08;7.93;;;7.20;;
7527;SDS011;3805;49.006;8.514;2023-11-21T12:07:47;8.07;;;7.30;;
7527;SDS011;3805;49.006;8.514;2023-11-21T12:10:22;7.90;;;7.10;;
7527;SDS011;3805;49.006;8.514;2023-11-21T12:12:53;8.13;;;7.07;;
7527;SDS011;3805;49.006;8.514;2023-11-21T12:15:22;8.57;;;6.87;;
7527;SDS011;3805;49.006;8.514;2023-11-21T12:17:51;9.10;;;6.33;;
7527;SDS011;3805;49.006;8.514;2023-11-21T12:20:23;8.97;;;8.07;;
7527;SDS011;3805;49.006;8.514;2023-11-21T12:22:54;7.53;;;6.33;;
7527;SDS011;3805;49.006;8.514;2023-11-21T12:25:23;9.17;;;5.80;;
7527;SDS011;3805;49.006;8.514;2023-11-21T12:27:55;6.73;;;6.23;;
7527;SDS011;3805;49.006;8.514;2023-11-21T12:30:25;7.57;;;6.73;;
7527;SDS011;3805;49.006;8.514;2023-11-21T12:32:55;7.43;;;6.70;;
7527;SDS011;3805;49.006;8.514;2023-11-21T12:35:24;7.27;;;6.57;;
7527;SDS011;3805;49.006;8.514;2023-11-21T12:37:55;7.70;;;6.93;;
7527;SDS011;3805;49.006;8.514;2023-11-21T12:40:24;7.63;;;6.87;;
7527;SDS011;3805;49.006;8.514;2023-11-21T12:42:55;7.17;;;6.00;;
7527;SDS011;3805;49.006;8.514;2023-11-21T12:45:26;7.57;;;6.43;;
7527;SDS011;3805;49.006;8.514;2023-11-21T12:47:55;7.33;;;6.57;;
7527;SDS011;3805;49.006;8.514;2023-11-21T12:50:27;7.13;;;6.43;;
7527;SDS011;3805;49.006;8.514;2023-11-21T12:53:01;8.30;;;7.50;;
7527;SDS011;3805;49.006;8.514;2023-11-21T12:55:32;8.00;;;7.20;;
7527;SDS011;3805;49.006;8.514;2023-11-21T12:58:05;7.60;;;6.80;;
7527;SDS011;3805;49.006;8.514;2023-11-21T13:00:38;12.57;;;8.90;;
7527;SDS011;3805;49.006;8.514;2023-11-21T13:03:10;7.73;;;6.93;;
7527;SDS011;3805;49.006;8.514;2023-11-21T13:05:44;10.13;;;9.03;;
7527;SDS011;3805;49.006;8.514;2023-11-21T13:08:16;10.03;;;8.73;;
7527;SDS011;3805;49.006;8.514;2023-11-21T13:10:48;10.60;;;9.60;;
7527;SDS011;3805;49.006;8.514;2023-11-21T13:13:19;8.80;;;7.90;;
7527;SDS011;3805;49.006;8.514;2023-11-21T13:15:51;14.13;;;8.90;;
7527;SDS011;3805;49.006;8.514;2023-11-21T13:18:22;9.43;;;7.93;;
7527;SDS011;3805;49.006;8.514;2023-11-21T13:20:50;11.30;;;8.60;;
7527;SDS011;3805;49.006;8.514;2023-11-21T13:23:20;11.83;;;8.97;;
7527;SDS011;3805;49.006;8.514;2023-11-21T13:25:49;13.63;;;9.80;;
7527;SDS011;3805;49.006;8.514;2023-11-21T13:28:28;10.10;;;9.03;;
7527;SDS011;3805;49.006;8.514;2023-11-21T13:31:00;10.67;;;8.60;;
7527;SDS011;3805;49.006;8.514;2023-11-21T13:33:37;9.43;;;8.53;;
7527;SDS011;3805;49.006;8.514;2023-11-21T13:36:06;9.93;;;8.67;;
7527;SDS011;3805;49.006;8.514;2023-11-21T13:38:37;11.37;;;7.93;;
7527;SDS011;3805;49.006;8.514;2023-11-21T13:41:10;9.50;;;8.20;;
7527;SDS011;3805;49.006;8.514;2023-11-21T13:43:40;8.70;;;6.67;;
7527;SDS011;3805;49.006;8.514;2023-11-21T13:46:12;6.93;;;6.33;;
7527;SDS011;3805;49.006;8.514;2023-11-21T13:48:49;7.40;;;6.43;;
7527;SDS011;3805;49.006;8.514;2023-11-21T13:51:22;7.00;;;6.40;;
7527;SDS011;3805;49.006;8.514;2023-11-21T13:54:00;8.37;;;6.50;;
7527;SDS011;3805;49.006;8.514;2023-11-21T13:56:28;7.27;;;6.07;;
7527;SDS011;3805;49.006;8.514;2023-11-21T13:58:57;7.77;;;6.97;;
7527;SDS011;3805;49.006;8.514;2023-11-21T14:01:30;8.47;;;7.30;;
7527;SDS011;3805;49.006;8.514;2023-11-21T14:04:21;8.17;;;6.00;;
7527;SDS011;3805;49.006;8.514;2023-11-21T14:07:02;6.40;;;5.80;;
7527;SDS011;3805;49.006;8.514;2023-11-21T14:09:48;6.33;;;5.50;;
7527;SDS011;3805;49.006;8.514;2023-11-21T14:12:17;6.10;;;5.60;;
7527;SDS011;3805;49.006;8.514;2023-11-21T14:14:45;7.20;;;5.50;;
7527;SDS011;3805;49.006;8.514;2023-11-21T14:17:14;6.63;;;4.80;;
7527;SDS011;3805;49.006;8.514;2023-11-21T14:19:42;5.43;;;5.00;;
7527;SDS011;3805;49.006;8.514;2023-11-21T14:22:11;5.20;;;4.77;;
7527;SDS011;3805;49.006;8.514;2023-11-21T14:24:40;5.80;;;4.70;;
7527;SDS011;3805;49.006;8.514;2023-11-21T14:27:12;5.80;;;5.23;;
7527;SDS011;3805;49.006;8.514;2023-11-21T14:29:44;4.70;;;4.30;;
7527;SDS011;3805;49.006;8.514;2023-11-21T14:32:13;4.50;;;4.10;;
7527;SDS011;3805;49.006;8.514;2023-11-21T14:34:42;5.70;;;4.67;;
7527;SDS011;3805;49.006;8.514;2023-11-21T14:37:14;5.73;;;4.50;;
7527;SDS011;3805;49.006;8.514;2023-11-21T14:39:42;4.73;;;4.27;;
7527;SDS011;3805;49.006;8.514;2023-11-21T14:42:14;5.20;;;4.77;;
7527;SDS011;3805;49.006;8.514;2023-11-21T14:44:42;6.80;;;5.20;;
7527;SDS011;3805;49.006;8.514;2023-11-21T14:47:14;5.13;;;4.53;;
7527;SDS011;3805;49.006;8.514;2023-11-21T14:49:43;7.03;;;4.97;;
7527;SDS011;3805;49.006;8.514;2023-11-21T14:52:21;5.33;;;4.47;;
7527;SDS011;3805;49.006;8.514;2023-11-21T14:55:00;5.47;;;5.00;;
7527;SDS011;3805;49.006;8.514;2023-11-21T14:57:43;4.90;;;4.50;;
7527;SDS011;3805;49.006;8.514;2023-11-21T15:00:16;8.20;;;5.50;;
7527;SDS011;3805;49.006;8.514;2023-11-21T15:03:03;5.77;;;4.93;;
7527;SDS011;3805;49.006;8.514;2023-11-21T15:05:32;5.53;;;5.03;;
7527;SDS011;3805;49.006;8.514;2023-11-21T15:08:02;5.67;;;4.83;;
7527;SDS011;3805;49.006;8.514;2023-11-21T15:10:44;6.10;;;5.30;;
7527;SDS011;3805;49.006;8.514;2023-11-21T15:13:17;6.03;;;5.43;;
7527;SDS011;3805;49.006;8.514;2023-11-21T15:15:44;5.23;;;4.83;;
7527;SDS011;3805;49.006;8.514;2023-11-21T15:18:14;5.67;;;5.17;;
7527;SDS011;3805;49.006;8.514;2023-11-21T15:20:43;6.40;;;4.97;;
7527;SDS011;3805;49.006;8.514;2023-11-21T15:23:11;6.30;;;5.70;;
7527;SDS011;3805;49.006;8.514;2023-11-21T15:25:40;6.23;;;5.70;;
7527;SDS011;3805;49.006;8.514;2023-11-21T15:28:08;8.13;;;5.60;;